createdAt,value
2022-11-16T00:00:27.348Z,74.89
2022-11-16T00:03:02.327Z,75.27
2022-11-16T00:05:34.889Z,75.19
2022-11-16T00:08:07.498Z,75.50
2022-11-16T00:10:39.968Z,75.18
2022-11-16T00:13:13.951Z,75.02
2022-11-16T00:15:55.597Z,75.32
2022-11-16T00:18:28.209Z,75.45
2022-11-16T00:21:00.657Z,75.11
2022-11-16T00:23:35.954Z,75.08
2022-11-16T00:26:12.278Z,74.96
2022-11-16T00:28:46.384Z,75.03
2022-11-16T00:31:20.530Z,75.61
2022-11-16T00:33:52.944Z,75.25
2022-11-16T00:36:27.904Z,75.61
2022-11-16T00:39:00.319Z,75.50
2022-11-16T00:41:32.758Z,75.07
2022-11-16T00:44:06.904Z,75.24
2022-11-16T00:46:39.927Z,75.53
2022-11-16T00:49:12.383Z,75.48
2022-11-16T00:51:45.012Z,75.34
2022-11-16T00:54:17.595Z,75.17
2022-11-16T00:56:50.154Z,75.42
2022-11-16T00:59:24.230Z,75.02
2022-11-16T01:01:59.803Z,75.18
2022-11-16T01:04:32.371Z,75.48
2022-11-16T01:07:05.249Z,75.58
2022-11-16T01:09:37.772Z,75.26
2022-11-16T01:12:10.313Z,75.43
2022-11-16T01:14:46.182Z,75.34
2022-11-16T01:17:18.745Z,75.40
2022-11-16T01:19:51.370Z,75.29
2022-11-16T01:22:23.991Z,75.58
2022-11-16T01:24:56.428Z,75.38
2022-11-16T01:27:29.520Z,75.29
2022-11-16T01:30:08.595Z,75.21
2022-11-16T01:32:44.214Z,75.13
2022-11-16T01:35:19.098Z,75.10
2022-11-16T01:37:52.751Z,75.33
2022-11-16T01:40:28.168Z,75.44
2022-11-16T01:43:00.647Z,74.91
2022-11-16T01:45:38.902Z,74.99
2022-11-16T01:48:18.257Z,75.08
2022-11-16T01:50:52.496Z,74.87
2022-11-16T01:53:25.785Z,74.80
2022-11-16T01:56:01.676Z,75.05
2022-11-16T01:59:05.740Z,75.06
2022-11-16T02:01:40.033Z,74.64
2022-11-16T02:04:14.077Z,75.15
2022-11-16T02:07:02.367Z,75.08
2022-11-16T02:09:53.727Z,75.13
2022-11-16T02:12:58.844Z,75.10
2022-11-16T02:15:45.581Z,75.13
2022-11-16T02:18:35.155Z,74.66
2022-11-16T02:21:20.740Z,74.67
2022-11-16T02:24:18.866Z,74.99
2022-11-16T02:27:16.709Z,74.53
2022-11-16T02:29:52.566Z,74.65
2022-11-16T02:32:30.378Z,74.57
2022-11-16T02:35:07.718Z,74.67
2022-11-16T02:37:46.175Z,75.11
2022-11-16T02:40:22.414Z,74.55
2022-11-16T02:42:59.663Z,74.61
2022-11-16T02:45:38.861Z,74.48
2022-11-16T02:48:15.162Z,74.94
2022-11-16T02:50:52.881Z,74.49
2022-11-16T02:53:25.894Z,74.66
2022-11-16T02:56:00.277Z,74.97
2022-11-16T02:58:33.444Z,74.65
2022-11-16T03:01:13.345Z,74.47
2022-11-16T03:03:52.604Z,74.68
2022-11-16T03:06:30.046Z,74.62
2022-11-16T03:09:08.696Z,74.68
2022-11-16T03:12:01.499Z,74.26
2022-11-16T03:14:43.261Z,74.47
2022-11-16T03:17:22.364Z,74.33
2022-11-16T03:20:01.293Z,74.35
2022-11-16T03:22:41.189Z,74.30
2022-11-16T03:25:16.561Z,74.35
2022-11-16T03:27:55.252Z,74.85
2022-11-16T03:30:35.652Z,74.76
2022-11-16T03:33:18.418Z,74.04
2022-11-16T03:36:00.289Z,74.59
2022-11-16T03:38:35.931Z,74.39
2022-11-16T03:41:11.363Z,74.96
2022-11-16T03:43:45.106Z,74.69
2022-11-16T03:46:19.560Z,74.32
2022-11-16T03:48:59.586Z,74.64
2022-11-16T03:51:36.536Z,74.83
2022-11-16T03:54:09.654Z,74.25
2022-11-16T03:56:43.972Z,74.29
2022-11-16T03:59:16.444Z,74.31
2022-11-16T04:01:50.907Z,74.21
2022-11-16T04:04:43.601Z,74.51
2022-11-16T04:07:34.793Z,74.54
2022-11-16T04:10:26.653Z,74.08
2022-11-16T04:13:19.907Z,74.60
2022-11-16T04:16:11.121Z,74.53
2022-11-16T04:19:02.094Z,74.04
2022-11-16T04:21:58.116Z,74.74
2022-11-16T04:24:37.571Z,74.23
2022-11-16T04:27:31.807Z,74.70
2022-11-16T04:30:06.445Z,73.93
2022-11-16T04:32:58.813Z,74.56
2022-11-16T04:35:50.109Z,74.18
2022-11-16T04:38:24.208Z,74.62
2022-11-16T04:40:56.786Z,74.15
2022-11-16T04:43:29.435Z,73.82
2022-11-16T04:46:20.656Z,74.33
2022-11-16T04:48:53.338Z,74.13
2022-11-16T04:51:25.936Z,74.41
2022-11-16T04:54:00.099Z,74.46
2022-11-16T04:56:34.448Z,74.17
2022-11-16T04:59:07.179Z,74.55
2022-11-16T05:01:58.602Z,74.29
2022-11-16T05:04:31.224Z,74.45
2022-11-16T05:07:04.443Z,74.21
2022-11-16T05:09:41.611Z,74.14
2022-11-16T05:12:17.774Z,74.28
2022-11-16T05:14:52.824Z,74.17
2022-11-16T05:17:27.677Z,74.37
2022-11-16T05:20:20.940Z,73.69
2022-11-16T05:22:58.540Z,73.75
2022-11-16T05:25:37.742Z,74.47
2022-11-16T05:28:14.806Z,73.92
2022-11-16T05:30:47.383Z,73.86
2022-11-16T05:33:24.693Z,73.69
2022-11-16T05:36:11.069Z,74.29
2022-11-16T05:38:51.580Z,74.12
2022-11-16T05:41:28.575Z,74.34
2022-11-16T05:44:02.056Z,73.67
2022-11-16T05:46:35.169Z,73.97
2022-11-16T05:49:08.126Z,74.16
2022-11-16T05:51:43.415Z,74.07
2022-11-16T05:54:18.830Z,73.39
2022-11-16T05:56:54.153Z,74.15
2022-11-16T05:59:30.165Z,74.10
2022-11-16T06:02:04.981Z,73.58
2022-11-16T06:04:39.172Z,73.96
2022-11-16T06:07:11.755Z,74.25
2022-11-16T06:09:44.667Z,73.95
2022-11-16T06:12:26.512Z,74.33
2022-11-16T06:14:59.449Z,73.48
2022-11-16T06:17:33.926Z,73.93
2022-11-16T06:20:08.087Z,73.60
2022-11-16T06:22:40.609Z,73.49
2022-11-16T06:25:13.667Z,73.25
2022-11-16T06:27:50.528Z,73.58
2022-11-16T06:30:24.317Z,72.69
2022-11-16T06:32:58.109Z,73.22
2022-11-16T06:35:30.981Z,72.77
2022-11-16T06:38:04.023Z,73.15
2022-11-16T06:40:38.215Z,72.61
2022-11-16T06:43:12.373Z,72.46
2022-11-16T06:45:48.662Z,73.06
2022-11-16T06:48:22.129Z,72.33
2022-11-16T06:50:54.792Z,72.24
2022-11-16T06:53:29.576Z,72.85
2022-11-16T06:56:07.777Z,72.27
2022-11-16T06:58:51.977Z,72.59
2022-11-16T07:01:26.329Z,72.22
2022-11-16T07:04:04.564Z,72.45
2022-11-16T07:06:38.363Z,72.13
2022-11-16T07:09:14.935Z,71.52
2022-11-16T07:11:49.126Z,72.19
2022-11-16T07:14:24.657Z,71.98
2022-11-16T07:17:00.411Z,71.50
2022-11-16T07:19:36.881Z,71.14
2022-11-16T07:22:10.416Z,71.85
2022-11-16T07:24:43.822Z,72.04
2022-11-16T07:27:17.431Z,72.07
2022-11-16T07:29:55.276Z,72.10
2022-11-16T07:33:23.921Z,71.61
2022-11-16T07:37:30.894Z,71.77
2022-11-16T07:41:01.385Z,71.19
2022-11-16T07:44:57.101Z,71.52
2022-11-16T07:48:55.887Z,71.94
2022-11-16T08:02:54.704Z,71.60
2022-11-16T08:34:08.551Z,70.72
2022-11-16T08:38:00.061Z,71.34
2022-11-16T09:07:57.871Z,69.23
2022-11-16T09:11:42.104Z,70.48
2022-11-16T09:35:40.078Z,70.96
2022-11-16T09:43:12.516Z,70.85
2022-11-16T10:04:08.562Z,71.44
2022-11-16T10:07:44.886Z,71.08
2022-11-16T10:14:27.361Z,70.83
2022-11-16T10:18:55.949Z,71.65
2022-11-16T10:46:32.776Z,70.91
2022-11-16T10:50:51.166Z,71.73
2022-11-16T11:24:37.431Z,70.92
2022-11-16T11:27:22.537Z,70.30
2022-11-16T11:29:58.848Z,70.19
2022-11-16T11:32:35.043Z,71.32
2022-11-16T11:35:23.628Z,70.36
2022-11-16T11:37:59.614Z,70.91
2022-11-16T11:40:34.785Z,70.64
2022-11-16T11:43:22.824Z,70.70
2022-11-16T11:46:02.041Z,70.57
2022-11-16T11:48:47.937Z,69.87
2022-11-16T11:51:27.642Z,69.21
2022-11-16T11:54:02.496Z,68.99
2022-11-16T11:56:37.843Z,68.48
2022-11-16T11:59:19.262Z,68.29
2022-11-16T12:02:07.809Z,68.62
2022-11-16T12:05:11.722Z,68.69
2022-11-16T12:07:54.001Z,68.06
2022-11-16T12:10:38.350Z,68.87
2022-11-16T12:13:31.322Z,68.34
2022-11-16T12:19:33.954Z,68.76
2022-11-16T12:22:18.959Z,69.16
2022-11-16T12:25:15.192Z,69.45
2022-11-16T12:27:57.757Z,69.65
2022-11-16T12:30:37.850Z,69.13
2022-11-16T12:33:24.187Z,70.12
2022-11-16T12:36:03.326Z,69.65
2022-11-16T12:38:59.840Z,69.70
2022-11-16T12:41:51.233Z,70.42
2022-11-16T12:44:37.763Z,70.29
2022-11-16T12:47:19.434Z,70.28
2022-11-16T12:50:08.439Z,70.77
2022-11-16T12:52:58.916Z,71.02
2022-11-16T12:55:41.152Z,70.16
2022-11-16T12:58:20.741Z,70.33
2022-11-16T13:01:05.250Z,70.64
2022-11-16T13:03:46.951Z,70.60
2022-11-16T13:06:27.386Z,70.44
2022-11-16T13:09:07.015Z,70.07
2022-11-16T13:11:44.437Z,70.05
2022-11-16T13:14:19.990Z,70.55
2022-11-16T13:16:54.008Z,70.16
2022-11-16T13:19:27.098Z,69.90
2022-11-16T13:22:08.145Z,69.74
2022-11-16T13:24:49.935Z,70.54
2022-11-16T13:27:30.608Z,70.05
2022-11-16T13:30:13.163Z,70.56
2022-11-16T13:33:03.857Z,69.82
2022-11-16T13:35:38.404Z,69.71
2022-11-16T13:38:16.239Z,69.89
2022-11-16T13:40:48.965Z,69.86
2022-11-16T13:43:22.738Z,69.86
2022-11-16T13:45:58.115Z,69.16
2022-11-16T13:48:34.716Z,69.41
2022-11-16T13:51:17.583Z,69.19
2022-11-16T13:56:51.884Z,69.23
2022-11-16T13:59:26.835Z,69.44
2022-11-16T14:02:23.750Z,69.08
2022-11-16T14:04:58.904Z,68.97
2022-11-16T14:07:34.873Z,69.57
2022-11-16T14:10:10.856Z,68.54
2022-11-16T14:12:54.810Z,68.87
2022-11-16T14:15:35.767Z,69.51
2022-11-16T14:18:31.854Z,68.30
2022-11-16T14:21:15.767Z,68.53
2022-11-16T14:24:05.215Z,68.57
2022-11-16T14:26:53.339Z,68.77
2022-11-16T14:29:48.377Z,69.23
2022-11-16T14:32:23.238Z,68.81
2022-11-16T14:34:59.083Z,68.74
2022-11-16T14:37:35.635Z,68.64
2022-11-16T14:40:14.174Z,69.06
2022-11-16T14:43:15.320Z,69.26
2022-11-16T14:45:48.653Z,68.49
2022-11-16T14:48:25.968Z,68.56
2022-11-16T14:51:04.192Z,68.71
2022-11-16T14:53:39.854Z,68.49
2022-11-16T14:56:14.730Z,68.03
2022-11-16T14:58:57.045Z,68.75
2022-11-16T15:01:32.432Z,68.65
2022-11-16T15:04:07.661Z,68.86
2022-11-16T15:06:43.838Z,69.62
2022-11-16T15:09:22.673Z,68.75
2022-11-16T15:12:15.440Z,68.39
2022-11-16T15:14:52.190Z,68.76
2022-11-16T15:17:31.792Z,70.05
2022-11-16T15:20:17.283Z,69.23
2022-11-16T15:22:53.090Z,69.46
2022-11-16T15:25:28.686Z,69.12
2022-11-16T15:28:03.456Z,68.97
2022-11-16T15:30:38.578Z,68.57
2022-11-16T15:33:17.013Z,68.84
2022-11-16T15:35:49.584Z,69.15
2022-11-16T15:38:23.392Z,69.42
2022-11-16T15:40:58.797Z,69.28
2022-11-16T15:43:34.603Z,68.25
2022-11-16T15:46:13.028Z,69.07
2022-11-16T15:48:46.559Z,68.74
2022-11-16T15:51:23.332Z,68.64
2022-11-16T15:54:11.979Z,68.58
2022-11-16T15:56:44.476Z,68.49
2022-11-16T15:59:23.521Z,67.88
2022-11-16T16:01:57.715Z,68.51
2022-11-16T16:04:30.530Z,68.72
2022-11-16T16:07:03.014Z,68.21
2022-11-16T16:09:38.127Z,68.58
2022-11-16T16:12:18.203Z,67.74
2022-11-16T16:14:52.431Z,68.10
2022-11-16T16:17:28.780Z,68.45
2022-11-16T16:20:03.177Z,68.22
2022-11-16T16:22:37.609Z,68.16
2022-11-16T16:25:29.528Z,68.39
2022-11-16T16:28:02.684Z,68.14
2022-11-16T16:30:36.082Z,68.54
2022-11-16T16:33:17.897Z,68.58
2022-11-16T16:35:51.126Z,68.36
2022-11-16T16:38:23.824Z,67.80
2022-11-16T16:41:00.626Z,67.84
2022-11-16T16:43:33.716Z,68.28
2022-11-16T16:46:07.047Z,68.29
2022-11-16T16:48:44.655Z,67.76
2022-11-16T16:51:17.502Z,68.36
2022-11-16T16:53:50.116Z,67.59
2022-11-16T16:56:22.863Z,68.21
2022-11-16T16:58:55.383Z,68.48
2022-11-16T17:01:28.410Z,68.50
2022-11-16T17:04:02.504Z,68.13
2022-11-16T17:06:35.480Z,67.45
2022-11-16T17:09:07.899Z,68.62
2022-11-16T17:11:40.574Z,67.99
2022-11-16T17:14:13.129Z,67.98
2022-11-16T17:16:45.699Z,67.35
2022-11-16T17:19:19.818Z,68.12
2022-11-16T17:21:52.528Z,68.04
2022-11-16T17:24:25.116Z,67.89
2022-11-16T17:26:57.721Z,68.36
2022-11-16T17:29:30.156Z,68.66
2022-11-16T17:32:03.274Z,67.96
2022-11-16T17:34:40.050Z,68.70
2022-11-16T17:37:14.224Z,68.02
2022-11-16T17:39:46.735Z,68.43
2022-11-16T17:42:19.299Z,67.84
2022-11-16T17:44:53.969Z,67.30
2022-11-16T17:47:26.548Z,67.71
2022-11-16T17:50:00.698Z,67.27
2022-11-16T17:52:33.246Z,67.71
2022-11-16T17:55:06.817Z,67.58
2022-11-16T17:57:39.342Z,66.96
2022-11-16T18:00:12.980Z,67.28
2022-11-16T18:02:45.764Z,67.88
2022-11-16T18:05:19.786Z,67.75
2022-11-16T18:07:52.435Z,67.90
2022-11-16T18:10:25.021Z,67.36
2022-11-16T18:12:57.597Z,67.56
2022-11-16T18:15:34.486Z,67.56
2022-11-16T18:18:09.269Z,67.98
2022-11-16T18:20:43.428Z,67.55
2022-11-16T18:23:16.186Z,67.94
2022-11-16T18:25:49.009Z,67.04
2022-11-16T18:28:21.680Z,67.03
2022-11-16T18:31:02.349Z,66.92
2022-11-16T18:33:37.551Z,66.97
2022-11-16T18:36:12.607Z,66.54
2022-11-16T18:38:45.661Z,65.83
2022-11-16T18:41:20.463Z,66.18
2022-11-16T18:43:54.775Z,65.54
2022-11-16T18:46:28.809Z,66.73
2022-11-16T18:49:01.503Z,66.04
2022-11-16T18:51:35.488Z,66.68
2022-11-16T18:54:08.886Z,65.72
2022-11-16T18:56:41.385Z,65.65
2022-11-16T18:59:13.929Z,66.10
2022-11-16T19:01:46.292Z,66.73
2022-11-16T19:04:18.733Z,65.95
2022-11-16T19:06:52.849Z,65.58
2022-11-16T19:09:25.460Z,66.28
2022-11-16T19:11:57.861Z,66.26
2022-11-16T19:14:30.320Z,66.21
2022-11-16T19:17:04.946Z,66.02
2022-11-16T19:19:37.671Z,66.10
2022-11-16T19:22:11.647Z,65.33
2022-11-16T19:24:44.122Z,66.10
2022-11-16T19:27:16.827Z,65.37
2022-11-16T19:29:49.404Z,65.33
2022-11-16T19:32:21.901Z,66.15
2022-11-16T19:34:54.348Z,65.66
2022-11-16T19:37:28.366Z,65.05
2022-11-16T19:40:01.036Z,65.99
2022-11-16T19:42:33.782Z,65.14
2022-11-16T19:45:07.157Z,65.47
2022-11-16T19:47:39.629Z,65.16
2022-11-16T19:50:12.141Z,65.99
2022-11-16T19:52:45.919Z,65.48
2022-11-16T19:55:18.336Z,65.68
2022-11-16T19:57:50.874Z,65.57
2022-11-16T20:00:23.562Z,66.14
2022-11-16T20:02:57.151Z,66.00
2022-11-16T20:05:30.839Z,66.22
2022-11-16T20:08:04.971Z,65.81
2022-11-16T20:10:37.661Z,66.18
2022-11-16T20:13:10.056Z,66.31
2022-11-16T20:15:42.566Z,65.39
2022-11-16T20:18:15.201Z,65.83
2022-11-16T20:20:47.715Z,66.33
2022-11-16T20:23:21.566Z,65.41
2022-11-16T20:25:54.092Z,65.34
2022-11-16T20:28:26.622Z,66.18
2022-11-16T20:31:00.031Z,65.79
2022-11-16T20:33:34.178Z,65.30
2022-11-16T20:36:10.026Z,65.42
2022-11-16T20:38:43.953Z,65.51
2022-11-16T20:41:18.668Z,64.60
2022-11-16T20:43:52.337Z,65.75
2022-11-16T20:46:26.736Z,65.79
2022-11-16T20:49:01.849Z,65.71
2022-11-16T20:51:34.466Z,65.38
2022-11-16T20:54:08.342Z,64.72
2022-11-16T20:56:40.971Z,65.74
2022-11-16T20:59:13.766Z,65.77
2022-11-16T21:01:48.864Z,65.63
2022-11-16T21:04:22.168Z,64.88
2022-11-16T21:06:54.701Z,64.78
2022-11-16T21:09:28.693Z,64.59
2022-11-16T21:12:19.852Z,65.34
2022-11-16T21:14:52.225Z,65.16
2022-11-16T21:17:24.665Z,65.43
2022-11-16T21:20:25.204Z,64.77
2022-11-16T21:22:49.656Z,65.57
2022-11-16T21:25:23.475Z,64.80
2022-11-16T21:27:57.188Z,64.91
2022-11-16T21:30:29.731Z,65.74
2022-11-16T21:33:02.372Z,65.29
2022-11-16T21:35:34.789Z,65.04
2022-11-16T21:38:07.237Z,65.58
2022-11-16T21:40:41.160Z,64.89
2022-11-16T21:43:15.242Z,65.49
2022-11-16T21:45:48.939Z,65.58
2022-11-16T21:48:21.391Z,65.07
2022-11-16T21:51:00.619Z,65.07
2022-11-16T21:53:33.880Z,65.65
2022-11-16T21:56:12.393Z,65.60
2022-11-16T21:58:45.302Z,64.84
2022-11-16T22:01:18.049Z,65.35
2022-11-16T22:04:10.768Z,65.15
2022-11-16T22:07:01.787Z,65.25
2022-11-16T22:09:34.366Z,65.68
2022-11-16T22:12:08.572Z,65.56
2022-11-16T22:14:41.280Z,65.13
2022-11-16T22:17:13.711Z,65.35
2022-11-16T22:19:46.372Z,65.57
2022-11-16T22:22:19.410Z,65.34
2022-11-16T22:24:52.112Z,65.66
2022-11-16T22:27:25.924Z,65.21
2022-11-16T22:29:58.429Z,65.53
2022-11-16T22:32:31.009Z,64.90
2022-11-16T22:35:03.799Z,65.50
2022-11-16T22:37:36.261Z,65.65
2022-11-16T22:40:16.436Z,65.25
2022-11-16T22:42:51.977Z,65.53
2022-11-16T22:45:25.253Z,65.43
2022-11-16T22:47:57.701Z,65.61
2022-11-16T22:50:30.214Z,65.65
2022-11-16T22:53:02.737Z,65.90
2022-11-16T22:55:36.506Z,65.69
2022-11-16T22:58:10.560Z,64.89
2022-11-16T23:00:43.061Z,65.63
2022-11-16T23:03:15.576Z,64.78
2022-11-16T23:05:48.200Z,64.94
2022-11-16T23:08:24.913Z,65.03
2022-11-16T23:11:17.716Z,65.00
2022-11-16T23:14:11.101Z,64.64
2022-11-16T23:16:43.913Z,65.38
2022-11-16T23:19:36.473Z,65.24
2022-11-16T23:22:32.538Z,65.85
2022-11-16T23:25:25.974Z,65.20
2022-11-16T23:28:03.423Z,65.58
2022-11-16T23:30:37.754Z,64.93
2022-11-16T23:33:10.857Z,64.82
2022-11-16T23:35:43.396Z,65.03
2022-11-16T23:38:15.991Z,65.01
2022-11-16T23:40:48.411Z,64.76
2022-11-16T23:43:39.653Z,65.45
2022-11-16T23:46:13.630Z,64.73
2022-11-16T23:48:46.259Z,65.66
2022-11-16T23:51:19.518Z,65.50
2022-11-16T23:53:52.184Z,64.90
2022-11-16T23:56:24.863Z,65.35
2022-11-16T23:58:57.639Z,65.50
